sensor_id;sensor_type;location;lat;lon;timestamp;P1;durP1;ratioP1;P2;durP2;ratioP2
85154;SDS011;75523;53.218;6.564;2024-03-02T00:00:22;276.98;;;263.45;;
85154;SDS011;75523;53.218;6.564;2024-03-02T00:05:16;290.25;;;276.02;;
85154;SDS011;75523;53.218;6.564;2024-03-02T00:07:43;285.45;;;271.48;;
85154;SDS011;75523;53.218;6.564;2024-03-02T00:10:10;279.52;;;265.83;;
85154;SDS011;75523;53.218;6.564;2024-03-02T00:12:37;270.65;;;257.30;;
85154;SDS011;75523;53.218;6.564;2024-03-02T00:15:06;278.85;;;265.23;;
85154;SDS011;75523;53.218;6.564;2024-03-02T00:17:53;272.50;;;259.08;;
85154;SDS011;75523;53.218;6.564;2024-03-02T00:20:18;280.05;;;266.27;;
85154;SDS011;75523;53.218;6.564;2024-03-02T00:22:47;280.77;;;266.98;;
85154;SDS011;75523;53.218;6.564;2024-03-02T00:25:12;279.02;;;265.20;;
85154;SDS011;75523;53.218;6.564;2024-03-02T00:27:38;279.15;;;265.35;;
85154;SDS011;75523;53.218;6.564;2024-03-02T00:33:06;287.48;;;273.25;;
85154;SDS011;75523;53.218;6.564;2024-03-02T00:35:32;277.58;;;263.73;;
85154;SDS011;75523;53.218;6.564;2024-03-02T00:37:58;273.02;;;259.52;;
85154;SDS011;75523;53.218;6.564;2024-03-02T00:40:26;278.65;;;264.83;;
85154;SDS011;75523;53.218;6.564;2024-03-02T00:42:53;287.23;;;273.13;;
85154;SDS011;75523;53.218;6.564;2024-03-02T00:45:18;282.90;;;268.92;;
85154;SDS011;75523;53.218;6.564;2024-03-02T00:47:44;278.00;;;264.08;;
85154;SDS011;75523;53.218;6.564;2024-03-02T00:50:09;286.42;;;272.33;;
85154;SDS011;75523;53.218;6.564;2024-03-02T00:52:35;280.58;;;266.70;;
85154;SDS011;75523;53.218;6.564;2024-03-02T00:55:01;272.70;;;259.30;;
85154;SDS011;75523;53.218;6.564;2024-03-02T00:57:27;278.77;;;265.05;;
85154;SDS011;75523;53.218;6.564;2024-03-02T00:59:55;284.58;;;270.67;;
85154;SDS011;75523;53.218;6.564;2024-03-02T01:02:20;288.30;;;274.17;;
85154;SDS011;75523;53.218;6.564;2024-03-02T01:04:46;280.85;;;267.00;;
85154;SDS011;75523;53.218;6.564;2024-03-02T01:07:11;285.48;;;271.42;;
85154;SDS011;75523;53.218;6.564;2024-03-02T01:09:37;285.77;;;271.65;;
85154;SDS011;75523;53.218;6.564;2024-03-02T01:12:02;284.67;;;270.70;;
85154;SDS011;75523;53.218;6.564;2024-03-02T01:14:28;279.08;;;265.45;;
85154;SDS011;75523;53.218;6.564;2024-03-02T01:16:53;278.10;;;264.45;;
85154;SDS011;75523;53.218;6.564;2024-03-02T01:19:19;285.27;;;271.17;;
85154;SDS011;75523;53.218;6.564;2024-03-02T01:21:44;288.35;;;274.25;;
85154;SDS011;75523;53.218;6.564;2024-03-02T01:24:10;283.13;;;269.20;;
85154;SDS011;75523;53.218;6.564;2024-03-02T01:26:35;279.50;;;265.73;;
85154;SDS011;75523;53.218;6.564;2024-03-02T01:29:01;283.90;;;269.88;;
85154;SDS011;75523;53.218;6.564;2024-03-02T01:31:26;281.20;;;267.35;;
85154;SDS011;75523;53.218;6.564;2024-03-02T01:33:52;282.00;;;267.98;;
85154;SDS011;75523;53.218;6.564;2024-03-02T01:36:17;285.92;;;271.58;;
85154;SDS011;75523;53.218;6.564;2024-03-02T01:38:43;284.30;;;270.30;;
85154;SDS011;75523;53.218;6.564;2024-03-02T01:41:09;279.90;;;266.17;;
85154;SDS011;75523;53.218;6.564;2024-03-02T01:43:34;279.20;;;265.30;;
85154;SDS011;75523;53.218;6.564;2024-03-02T01:46:00;284.67;;;270.70;;
85154;SDS011;75523;53.218;6.564;2024-03-02T01:48:26;278.55;;;264.85;;
85154;SDS011;75523;53.218;6.564;2024-03-02T01:50:51;278.35;;;264.65;;
85154;SDS011;75523;53.218;6.564;2024-03-02T01:53:16;280.67;;;266.83;;
85154;SDS011;75523;53.218;6.564;2024-03-02T01:55:42;282.35;;;268.52;;
85154;SDS011;75523;53.218;6.564;2024-03-02T01:58:08;279.23;;;265.50;;
85154;SDS011;75523;53.218;6.564;2024-03-02T02:00:33;286.77;;;272.73;;
85154;SDS011;75523;53.218;6.564;2024-03-02T02:02:59;285.45;;;271.35;;
85154;SDS011;75523;53.218;6.564;2024-03-02T02:05:25;276.10;;;262.38;;
85154;SDS011;75523;53.218;6.564;2024-03-02T02:07:50;274.52;;;260.92;;
85154;SDS011;75523;53.218;6.564;2024-03-02T02:10:16;275.45;;;261.88;;
85154;SDS011;75523;53.218;6.564;2024-03-02T02:12:41;277.67;;;264.00;;
85154;SDS011;75523;53.218;6.564;2024-03-02T02:15:28;277.88;;;264.08;;
85154;SDS011;75523;53.218;6.564;2024-03-02T02:17:54;281.52;;;267.73;;
85154;SDS011;75523;53.218;6.564;2024-03-02T02:20:20;282.27;;;268.13;;
85154;SDS011;75523;53.218;6.564;2024-03-02T02:25:20;273.98;;;260.27;;
85154;SDS011;75523;53.218;6.564;2024-03-02T02:27:45;280.00;;;266.10;;
85154;SDS011;75523;53.218;6.564;2024-03-02T02:30:11;273.70;;;260.15;;
85154;SDS011;75523;53.218;6.564;2024-03-02T02:32:37;278.83;;;264.92;;
85154;SDS011;75523;53.218;6.564;2024-03-02T02:35:02;273.30;;;259.88;;
85154;SDS011;75523;53.218;6.564;2024-03-02T02:37:28;280.95;;;267.02;;
85154;SDS011;75523;53.218;6.564;2024-03-02T02:39:54;283.17;;;269.00;;
85154;SDS011;75523;53.218;6.564;2024-03-02T02:42:19;280.40;;;266.35;;
85154;SDS011;75523;53.218;6.564;2024-03-02T02:44:45;281.33;;;267.55;;
85154;SDS011;75523;53.218;6.564;2024-03-02T02:47:10;279.38;;;265.60;;
85154;SDS011;75523;53.218;6.564;2024-03-02T02:49:36;276.65;;;263.05;;
85154;SDS011;75523;53.218;6.564;2024-03-02T02:52:01;286.15;;;272.10;;
85154;SDS011;75523;53.218;6.564;2024-03-02T02:54:27;275.77;;;261.70;;
85154;SDS011;75523;53.218;6.564;2024-03-02T02:56:52;287.48;;;273.35;;
85154;SDS011;75523;53.218;6.564;2024-03-02T02:59:18;282.38;;;268.50;;
85154;SDS011;75523;53.218;6.564;2024-03-02T03:01:43;278.95;;;265.27;;
85154;SDS011;75523;53.218;6.564;2024-03-02T03:04:09;281.40;;;267.63;;
85154;SDS011;75523;53.218;6.564;2024-03-02T03:06:35;278.00;;;264.45;;
85154;SDS011;75523;53.218;6.564;2024-03-02T03:09:00;273.63;;;260.30;;
85154;SDS011;75523;53.218;6.564;2024-03-02T03:11:26;281.15;;;267.35;;
85154;SDS011;75523;53.218;6.564;2024-03-02T03:13:52;286.33;;;272.25;;
85154;SDS011;75523;53.218;6.564;2024-03-02T03:16:19;275.90;;;262.38;;
85154;SDS011;75523;53.218;6.564;2024-03-02T03:18:45;283.20;;;269.15;;
85154;SDS011;75523;53.218;6.564;2024-03-02T03:21:10;278.92;;;265.23;;
85154;SDS011;75523;53.218;6.564;2024-03-02T03:23:36;277.92;;;264.23;;
85154;SDS011;75523;53.218;6.564;2024-03-02T03:26:01;282.27;;;268.48;;
85154;SDS011;75523;53.218;6.564;2024-03-02T03:28:27;270.90;;;257.52;;
85154;SDS011;75523;53.218;6.564;2024-03-02T03:30:52;275.60;;;261.98;;
85154;SDS011;75523;53.218;6.564;2024-03-02T03:33:18;275.92;;;262.23;;
85154;SDS011;75523;53.218;6.564;2024-03-02T03:35:43;275.05;;;261.55;;
85154;SDS011;75523;53.218;6.564;2024-03-02T03:38:09;274.70;;;261.20;;
85154;SDS011;75523;53.218;6.564;2024-03-02T03:40:35;281.88;;;268.13;;
85154;SDS011;75523;53.218;6.564;2024-03-02T03:43:00;274.92;;;261.42;;
85154;SDS011;75523;53.218;6.564;2024-03-02T03:45:26;276.02;;;262.60;;
85154;SDS011;75523;53.218;6.564;2024-03-02T03:47:52;290.02;;;275.83;;
85154;SDS011;75523;53.218;6.564;2024-03-02T03:50:18;280.20;;;266.48;;
85154;SDS011;75523;53.218;6.564;2024-03-02T03:52:45;276.58;;;262.95;;
85154;SDS011;75523;53.218;6.564;2024-03-02T03:55:10;276.95;;;263.25;;
85154;SDS011;75523;53.218;6.564;2024-03-02T03:57:36;273.55;;;260.02;;
85154;SDS011;75523;53.218;6.564;2024-03-02T04:00:01;280.73;;;267.00;;
85154;SDS011;75523;53.218;6.564;2024-03-02T04:02:27;278.25;;;264.52;;
85154;SDS011;75523;53.218;6.564;2024-03-02T04:04:53;272.75;;;259.35;;
85154;SDS011;75523;53.218;6.564;2024-03-02T04:07:19;283.20;;;269.27;;
85154;SDS011;75523;53.218;6.564;2024-03-02T04:09:44;283.10;;;269.20;;
85154;SDS011;75523;53.218;6.564;2024-03-02T04:12:10;279.17;;;265.48;;
85154;SDS011;75523;53.218;6.564;2024-03-02T04:14:38;282.90;;;269.15;;
85154;SDS011;75523;53.218;6.564;2024-03-02T04:17:03;280.17;;;266.55;;
85154;SDS011;75523;53.218;6.564;2024-03-02T04:19:29;277.95;;;264.30;;
85154;SDS011;75523;53.218;6.564;2024-03-02T04:21:55;287.52;;;273.52;;
85154;SDS011;75523;53.218;6.564;2024-03-02T04:24:20;279.90;;;266.10;;
85154;SDS011;75523;53.218;6.564;2024-03-02T04:26:46;285.00;;;271.05;;
85154;SDS011;75523;53.218;6.564;2024-03-02T04:29:11;281.58;;;267.67;;
85154;SDS011;75523;53.218;6.564;2024-03-02T04:31:37;283.05;;;269.20;;
85154;SDS011;75523;53.218;6.564;2024-03-02T04:34:02;280.40;;;266.67;;
85154;SDS011;75523;53.218;6.564;2024-03-02T04:36:28;283.33;;;269.52;;
85154;SDS011;75523;53.218;6.564;2024-03-02T04:38:53;284.60;;;270.60;;
85154;SDS011;75523;53.218;6.564;2024-03-02T04:41:19;272.75;;;259.30;;
85154;SDS011;75523;53.218;6.564;2024-03-02T04:43:44;281.73;;;267.85;;
85154;SDS011;75523;53.218;6.564;2024-03-02T04:46:10;272.55;;;259.23;;
85154;SDS011;75523;53.218;6.564;2024-03-02T04:48:35;274.40;;;260.95;;
85154;SDS011;75523;53.218;6.564;2024-03-02T04:51:01;269.13;;;256.00;;
85154;SDS011;75523;53.218;6.564;2024-03-02T04:53:27;269.27;;;256.00;;
85154;SDS011;75523;53.218;6.564;2024-03-02T04:55:52;271.08;;;257.63;;
85154;SDS011;75523;53.218;6.564;2024-03-02T04:58:21;280.52;;;266.80;;
85154;SDS011;75523;53.218;6.564;2024-03-02T05:00:46;275.92;;;262.38;;
85154;SDS011;75523;53.218;6.564;2024-03-02T05:03:12;279.50;;;265.80;;
85154;SDS011;75523;53.218;6.564;2024-03-02T05:05:38;274.67;;;261.20;;
85154;SDS011;75523;53.218;6.564;2024-03-02T05:08:04;274.25;;;260.90;;
85154;SDS011;75523;53.218;6.564;2024-03-02T05:10:29;276.83;;;263.35;;
85154;SDS011;75523;53.218;6.564;2024-03-02T05:12:55;281.98;;;267.95;;
85154;SDS011;75523;53.218;6.564;2024-03-02T05:15:25;277.20;;;263.67;;
85154;SDS011;75523;53.218;6.564;2024-03-02T05:17:50;284.33;;;270.45;;
85154;SDS011;75523;53.218;6.564;2024-03-02T05:20:16;276.58;;;262.88;;
85154;SDS011;75523;53.218;6.564;2024-03-02T05:22:42;269.15;;;255.75;;
85154;SDS011;75523;53.218;6.564;2024-03-02T05:25:07;269.73;;;256.42;;
85154;SDS011;75523;53.218;6.564;2024-03-02T05:27:34;275.77;;;262.27;;
85154;SDS011;75523;53.218;6.564;2024-03-02T05:30:00;277.88;;;264.10;;
85154;SDS011;75523;53.218;6.564;2024-03-02T05:32:26;275.98;;;262.40;;
85154;SDS011;75523;53.218;6.564;2024-03-02T05:34:52;273.98;;;260.45;;
85154;SDS011;75523;53.218;6.564;2024-03-02T05:37:18;278.42;;;264.73;;
85154;SDS011;75523;53.218;6.564;2024-03-02T05:39:43;269.20;;;255.60;;
85154;SDS011;75523;53.218;6.564;2024-03-02T05:42:09;282.27;;;268.45;;
85154;SDS011;75523;53.218;6.564;2024-03-02T05:44:35;277.60;;;263.98;;
85154;SDS011;75523;53.218;6.564;2024-03-02T05:47:01;282.05;;;268.23;;
85154;SDS011;75523;53.218;6.564;2024-03-02T05:49:28;273.90;;;260.43;;
85154;SDS011;75523;53.218;6.564;2024-03-02T05:51:53;266.08;;;252.98;;
85154;SDS011;75523;53.218;6.564;2024-03-02T05:54:19;284.98;;;271.00;;
85154;SDS011;75523;53.218;6.564;2024-03-02T05:56:45;272.85;;;259.30;;
85154;SDS011;75523;53.218;6.564;2024-03-02T05:59:10;272.98;;;259.63;;
85154;SDS011;75523;53.218;6.564;2024-03-02T06:04:05;279.30;;;265.52;;
85154;SDS011;75523;53.218;6.564;2024-03-02T06:06:30;270.83;;;257.55;;
85154;SDS011;75523;53.218;6.564;2024-03-02T06:08:59;272.73;;;259.38;;
85154;SDS011;75523;53.218;6.564;2024-03-02T06:11:25;279.37;;;265.47;;
85154;SDS011;75523;53.218;6.564;2024-03-02T06:13:50;274.05;;;260.48;;
85154;SDS011;75523;53.218;6.564;2024-03-02T06:16:16;278.55;;;264.90;;
85154;SDS011;75523;53.218;6.564;2024-03-02T06:18:41;280.23;;;266.40;;
85154;SDS011;75523;53.218;6.564;2024-03-02T06:21:07;272.80;;;259.45;;
85154;SDS011;75523;53.218;6.564;2024-03-02T06:23:33;274.83;;;261.35;;
85154;SDS011;75523;53.218;6.564;2024-03-02T06:25:59;284.07;;;270.20;;
85154;SDS011;75523;53.218;6.564;2024-03-02T06:28:25;274.50;;;260.95;;
85154;SDS011;75523;53.218;6.564;2024-03-02T06:30:51;267.48;;;254.32;;
85154;SDS011;75523;53.218;6.564;2024-03-02T06:33:16;273.45;;;260.00;;
85154;SDS011;75523;53.218;6.564;2024-03-02T06:35:42;274.95;;;261.42;;
85154;SDS011;75523;53.218;6.564;2024-03-02T06:38:07;274.63;;;261.05;;
85154;SDS011;75523;53.218;6.564;2024-03-02T06:40:33;271.67;;;258.33;;
85154;SDS011;75523;53.218;6.564;2024-03-02T06:42:59;277.88;;;263.85;;
85154;SDS011;75523;53.218;6.564;2024-03-02T06:45:25;278.55;;;264.70;;
85154;SDS011;75523;53.218;6.564;2024-03-02T06:47:50;275.42;;;261.75;;
85154;SDS011;75523;53.218;6.564;2024-03-02T06:50:16;276.75;;;263.20;;
85154;SDS011;75523;53.218;6.564;2024-03-02T06:52:41;273.17;;;259.70;;
85154;SDS011;75523;53.218;6.564;2024-03-02T06:55:08;278.20;;;264.48;;
85154;SDS011;75523;53.218;6.564;2024-03-02T06:57:34;274.30;;;260.85;;
85154;SDS011;75523;53.218;6.564;2024-03-02T06:59:59;278.73;;;265.02;;
85154;SDS011;75523;53.218;6.564;2024-03-02T07:02:25;277.05;;;263.42;;
85154;SDS011;75523;53.218;6.564;2024-03-02T07:04:53;280.38;;;266.70;;
85154;SDS011;75523;53.218;6.564;2024-03-02T07:07:19;271.52;;;258.33;;
85154;SDS011;75523;53.218;6.564;2024-03-02T07:09:44;272.30;;;259.00;;
85154;SDS011;75523;53.218;6.564;2024-03-02T07:12:10;273.58;;;260.15;;
85154;SDS011;75523;53.218;6.564;2024-03-02T07:14:36;267.17;;;254.20;;
85154;SDS011;75523;53.218;6.564;2024-03-02T07:17:20;284.70;;;270.85;;
85154;SDS011;75523;53.218;6.564;2024-03-02T07:19:46;271.27;;;257.98;;
85154;SDS011;75523;53.218;6.564;2024-03-02T07:22:11;276.15;;;262.70;;
85154;SDS011;75523;53.218;6.564;2024-03-02T07:24:40;282.15;;;268.45;;
85154;SDS011;75523;53.218;6.564;2024-03-02T07:27:06;278.85;;;265.27;;
85154;SDS011;75523;53.218;6.564;2024-03-02T07:29:32;275.08;;;261.35;;
85154;SDS011;75523;53.218;6.564;2024-03-02T07:31:58;283.23;;;269.35;;
85154;SDS011;75523;53.218;6.564;2024-03-02T07:34:23;270.88;;;257.63;;
85154;SDS011;75523;53.218;6.564;2024-03-02T07:36:49;280.00;;;266.40;;
85154;SDS011;75523;53.218;6.564;2024-03-02T07:39:15;278.27;;;264.52;;
85154;SDS011;75523;53.218;6.564;2024-03-02T07:41:41;280.10;;;266.30;;
85154;SDS011;75523;53.218;6.564;2024-03-02T07:44:07;275.92;;;262.38;;
85154;SDS011;75523;53.218;6.564;2024-03-02T07:46:32;282.48;;;268.40;;
85154;SDS011;75523;53.218;6.564;2024-03-02T07:48:58;276.92;;;263.25;;
85154;SDS011;75523;53.218;6.564;2024-03-02T07:51:24;277.15;;;263.52;;
85154;SDS011;75523;53.218;6.564;2024-03-02T07:53:49;274.35;;;260.80;;
85154;SDS011;75523;53.218;6.564;2024-03-02T07:56:15;276.73;;;263.15;;
85154;SDS011;75523;53.218;6.564;2024-03-02T07:58:47;278.45;;;264.35;;
85154;SDS011;75523;53.218;6.564;2024-03-02T08:03:39;284.83;;;270.77;;
85154;SDS011;75523;53.218;6.564;2024-03-02T08:06:05;289.83;;;275.52;;
85154;SDS011;75523;53.218;6.564;2024-03-02T08:08:30;282.58;;;268.63;;
85154;SDS011;75523;53.218;6.564;2024-03-02T08:10:56;269.80;;;256.55;;
85154;SDS011;75523;53.218;6.564;2024-03-02T08:13:21;276.88;;;263.15;;
85154;SDS011;75523;53.218;6.564;2024-03-02T08:15:47;277.00;;;263.25;;
85154;SDS011;75523;53.218;6.564;2024-03-02T08:18:12;277.52;;;263.92;;
85154;SDS011;75523;53.218;6.564;2024-03-02T08:20:38;265.23;;;252.15;;
85154;SDS011;75523;53.218;6.564;2024-03-02T08:23:04;270.58;;;257.38;;
85154;SDS011;75523;53.218;6.564;2024-03-02T08:25:30;276.80;;;263.33;;
85154;SDS011;75523;53.218;6.564;2024-03-02T08:27:55;277.17;;;263.48;;
85154;SDS011;75523;53.218;6.564;2024-03-02T08:30:21;270.25;;;256.92;;
85154;SDS011;75523;53.218;6.564;2024-03-02T08:32:46;275.67;;;262.20;;
85154;SDS011;75523;53.218;6.564;2024-03-02T08:35:12;274.17;;;260.63;;
85154;SDS011;75523;53.218;6.564;2024-03-02T08:37:39;276.60;;;263.13;;
85154;SDS011;75523;53.218;6.564;2024-03-02T08:40:06;270.02;;;256.60;;
85154;SDS011;75523;53.218;6.564;2024-03-02T08:42:32;268.52;;;255.45;;
85154;SDS011;75523;53.218;6.564;2024-03-02T08:44:58;265.20;;;252.35;;
85154;SDS011;75523;53.218;6.564;2024-03-02T08:47:26;264.85;;;251.90;;
85154;SDS011;75523;53.218;6.564;2024-03-02T08:49:52;274.02;;;260.60;;
85154;SDS011;75523;53.218;6.564;2024-03-02T08:52:18;268.35;;;255.40;;
85154;SDS011;75523;53.218;6.564;2024-03-02T08:54:43;274.85;;;261.33;;
85154;SDS011;75523;53.218;6.564;2024-03-02T08:57:09;264.52;;;251.68;;
85154;SDS011;75523;53.218;6.564;2024-03-02T08:59:35;269.67;;;256.48;;
85154;SDS011;75523;53.218;6.564;2024-03-02T09:02:00;275.13;;;261.73;;
85154;SDS011;75523;53.218;6.564;2024-03-02T09:04:26;272.20;;;258.95;;
85154;SDS011;75523;53.218;6.564;2024-03-02T09:06:52;269.73;;;256.23;;
85154;SDS011;75523;53.218;6.564;2024-03-02T09:09:18;265.50;;;252.63;;
85154;SDS011;75523;53.218;6.564;2024-03-02T09:11:45;274.15;;;260.85;;
85154;SDS011;75523;53.218;6.564;2024-03-02T09:14:11;273.33;;;260.10;;
85154;SDS011;75523;53.218;6.564;2024-03-02T09:16:37;263.10;;;250.32;;
85154;SDS011;75523;53.218;6.564;2024-03-02T09:19:03;267.73;;;254.73;;
85154;SDS011;75523;53.218;6.564;2024-03-02T09:21:28;263.10;;;250.02;;
85154;SDS011;75523;53.218;6.564;2024-03-02T09:23:55;265.00;;;252.07;;
85154;SDS011;75523;53.218;6.564;2024-03-02T09:26:21;267.83;;;254.80;;
85154;SDS011;75523;53.218;6.564;2024-03-02T09:28:47;266.17;;;253.07;;
85154;SDS011;75523;53.218;6.564;2024-03-02T09:31:13;273.20;;;259.88;;
85154;SDS011;75523;53.218;6.564;2024-03-02T09:33:38;267.73;;;254.77;;
85154;SDS011;75523;53.218;6.564;2024-03-02T09:36:04;279.15;;;265.52;;
85154;SDS011;75523;53.218;6.564;2024-03-02T09:38:33;275.70;;;262.33;;
85154;SDS011;75523;53.218;6.564;2024-03-02T09:40:59;264.55;;;251.75;;
85154;SDS011;75523;53.218;6.564;2024-03-02T09:43:26;272.05;;;258.80;;
85154;SDS011;75523;53.218;6.564;2024-03-02T09:45:51;281.15;;;267.60;;
85154;SDS011;75523;53.218;6.564;2024-03-02T09:48:17;278.00;;;264.50;;
85154;SDS011;75523;53.218;6.564;2024-03-02T09:50:45;272.40;;;259.20;;
85154;SDS011;75523;53.218;6.564;2024-03-02T09:53:11;281.20;;;267.70;;
85154;SDS011;75523;53.218;6.564;2024-03-02T09:55:37;270.70;;;257.67;;
85154;SDS011;75523;53.218;6.564;2024-03-02T09:58:02;284.00;;;270.33;;
85154;SDS011;75523;53.218;6.564;2024-03-02T10:00:28;282.52;;;268.98;;
85154;SDS011;75523;53.218;6.564;2024-03-02T10:02:54;277.92;;;264.50;;
85154;SDS011;75523;53.218;6.564;2024-03-02T10:05:26;275.13;;;261.95;;
85154;SDS011;75523;53.218;6.564;2024-03-02T10:08:01;288.50;;;274.60;;
85154;SDS011;75523;53.218;6.564;2024-03-02T10:10:34;281.77;;;268.08;;
85154;SDS011;75523;53.218;6.564;2024-03-02T10:13:08;272.70;;;259.63;;
85154;SDS011;75523;53.218;6.564;2024-03-02T10:15:35;277.33;;;263.80;;
85154;SDS011;75523;53.218;6.564;2024-03-02T10:18:11;279.88;;;266.40;;
85154;SDS011;75523;53.218;6.564;2024-03-02T10:20:38;280.63;;;267.08;;
85154;SDS011;75523;53.218;6.564;2024-03-02T10:25:39;277.58;;;264.10;;
85154;SDS011;75523;53.218;6.564;2024-03-02T10:28:05;282.75;;;269.02;;
85154;SDS011;75523;53.218;6.564;2024-03-02T10:30:31;278.58;;;265.05;;
85154;SDS011;75523;53.218;6.564;2024-03-02T10:32:59;271.80;;;258.60;;
85154;SDS011;75523;53.218;6.564;2024-03-02T10:35:26;273.63;;;260.38;;
85154;SDS011;75523;53.218;6.564;2024-03-02T10:37:51;278.33;;;264.93;;
85154;SDS011;75523;53.218;6.564;2024-03-02T10:40:18;277.67;;;264.27;;
85154;SDS011;75523;53.218;6.564;2024-03-02T10:42:46;272.55;;;259.42;;
85154;SDS011;75523;53.218;6.564;2024-03-02T10:45:12;271.83;;;258.83;;
85154;SDS011;75523;53.218;6.564;2024-03-02T10:47:40;285.75;;;271.77;;
85154;SDS011;75523;53.218;6.564;2024-03-02T10:50:06;276.50;;;263.23;;
85154;SDS011;75523;53.218;6.564;2024-03-02T10:52:36;270.08;;;257.05;;
85154;SDS011;75523;53.218;6.564;2024-03-02T10:55:02;271.00;;;257.85;;
85154;SDS011;75523;53.218;6.564;2024-03-02T10:57:38;284.50;;;270.88;;
85154;SDS011;75523;53.218;6.564;2024-03-02T11:00:29;274.42;;;261.38;;
85154;SDS011;75523;53.218;6.564;2024-03-02T11:03:04;280.65;;;267.10;;
85154;SDS011;75523;53.218;6.564;2024-03-02T11:05:40;282.30;;;268.70;;
85154;SDS011;75523;53.218;6.564;2024-03-02T11:08:12;282.50;;;268.95;;
85154;SDS011;75523;53.218;6.564;2024-03-02T11:10:48;283.75;;;270.15;;
85154;SDS011;75523;53.218;6.564;2024-03-02T11:13:16;281.83;;;268.35;;
85154;SDS011;75523;53.218;6.564;2024-03-02T11:15:47;278.58;;;265.23;;
85154;SDS011;75523;53.218;6.564;2024-03-02T11:18:14;292.10;;;278.05;;
85154;SDS011;75523;53.218;6.564;2024-03-02T11:20:40;286.50;;;272.88;;
85154;SDS011;75523;53.218;6.564;2024-03-02T11:23:06;287.07;;;273.30;;
85154;SDS011;75523;53.218;6.564;2024-03-02T11:27:59;286.05;;;272.45;;
85154;SDS011;75523;53.218;6.564;2024-03-02T11:32:57;297.45;;;283.30;;
85154;SDS011;75523;53.218;6.564;2024-03-02T11:35:26;295.95;;;281.92;;
85154;SDS011;75523;53.218;6.564;2024-03-02T11:37:54;284.48;;;270.90;;
85154;SDS011;75523;53.218;6.564;2024-03-02T11:40:22;289.13;;;275.40;;
85154;SDS011;75523;53.218;6.564;2024-03-02T11:42:48;293.10;;;279.20;;
85154;SDS011;75523;53.218;6.564;2024-03-02T11:45:17;295.63;;;281.53;;
85154;SDS011;75523;53.218;6.564;2024-03-02T11:47:51;296.17;;;282.17;;
85154;SDS011;75523;53.218;6.564;2024-03-02T11:51:01;288.52;;;274.95;;
85154;SDS011;75523;53.218;6.564;2024-03-02T11:53:14;301.17;;;286.98;;
85154;SDS011;75523;53.218;6.564;2024-03-02T11:55:39;303.73;;;289.47;;
85154;SDS011;75523;53.218;6.564;2024-03-02T11:58:14;304.50;;;290.00;;
85154;SDS011;75523;53.218;6.564;2024-03-02T12:00:45;308.20;;;293.75;;
85154;SDS011;75523;53.218;6.564;2024-03-02T12:03:13;297.50;;;283.58;;
85154;SDS011;75523;53.218;6.564;2024-03-02T12:05:39;306.63;;;292.23;;
85154;SDS011;75523;53.218;6.564;2024-03-02T12:08:05;303.37;;;289.13;;
85154;SDS011;75523;53.218;6.564;2024-03-02T12:13:01;296.83;;;282.60;;
85154;SDS011;75523;53.218;6.564;2024-03-02T12:15:31;295.83;;;282.02;;
85154;SDS011;75523;53.218;6.564;2024-03-02T12:18:00;294.42;;;280.42;;
85154;SDS011;75523;53.218;6.564;2024-03-02T12:20:27;309.40;;;294.83;;
85154;SDS011;75523;53.218;6.564;2024-03-02T12:22:54;296.38;;;282.55;;
85154;SDS011;75523;53.218;6.564;2024-03-02T12:25:21;310.25;;;295.73;;
85154;SDS011;75523;53.218;6.564;2024-03-02T12:27:52;301.27;;;287.17;;
85154;SDS011;75523;53.218;6.564;2024-03-02T12:30:19;302.70;;;288.40;;
85154;SDS011;75523;53.218;6.564;2024-03-02T12:32:45;303.42;;;289.10;;
85154;SDS011;75523;53.218;6.564;2024-03-02T12:35:11;302.80;;;288.40;;
85154;SDS011;75523;53.218;6.564;2024-03-02T12:40:10;290.13;;;276.48;;
85154;SDS011;75523;53.218;6.564;2024-03-02T12:42:36;302.48;;;288.13;;
85154;SDS011;75523;53.218;6.564;2024-03-02T12:45:02;305.83;;;291.33;;
85154;SDS011;75523;53.218;6.564;2024-03-02T12:47:29;297.55;;;283.52;;
85154;SDS011;75523;53.218;6.564;2024-03-02T12:49:54;299.77;;;285.47;;
85154;SDS011;75523;53.218;6.564;2024-03-02T12:52:21;292.38;;;278.50;;
85154;SDS011;75523;53.218;6.564;2024-03-02T12:54:54;289.70;;;275.83;;
85154;SDS011;75523;53.218;6.564;2024-03-02T12:57:27;299.30;;;285.10;;
85154;SDS011;75523;53.218;6.564;2024-03-02T13:00:03;305.90;;;291.25;;
85154;SDS011;75523;53.218;6.564;2024-03-02T13:02:41;299.38;;;285.10;;
85154;SDS011;75523;53.218;6.564;2024-03-02T13:05:07;295.85;;;281.67;;
85154;SDS011;75523;53.218;6.564;2024-03-02T13:07:36;299.08;;;284.90;;
85154;SDS011;75523;53.218;6.564;2024-03-02T13:10:02;301.57;;;287.20;;
85154;SDS011;75523;53.218;6.564;2024-03-02T13:12:28;307.07;;;292.37;;
85154;SDS011;75523;53.218;6.564;2024-03-02T13:14:55;286.50;;;273.05;;
85154;SDS011;75523;53.218;6.564;2024-03-02T13:17:23;301.13;;;286.88;;
85154;SDS011;75523;53.218;6.564;2024-03-02T13:19:52;297.93;;;283.87;;
85154;SDS011;75523;53.218;6.564;2024-03-02T13:22:21;304.52;;;289.95;;
85154;SDS011;75523;53.218;6.564;2024-03-02T13:24:48;303.07;;;288.83;;
85154;SDS011;75523;53.218;6.564;2024-03-02T13:27:13;286.42;;;272.83;;
85154;SDS011;75523;53.218;6.564;2024-03-02T13:29:39;294.97;;;281.07;;
85154;SDS011;75523;53.218;6.564;2024-03-02T13:32:05;296.70;;;282.73;;
85154;SDS011;75523;53.218;6.564;2024-03-02T13:34:30;304.30;;;289.83;;
85154;SDS011;75523;53.218;6.564;2024-03-02T13:36:56;302.70;;;288.30;;
85154;SDS011;75523;53.218;6.564;2024-03-02T13:39:21;283.17;;;269.83;;
85154;SDS011;75523;53.218;6.564;2024-03-02T13:41:47;300.37;;;286.20;;
85154;SDS011;75523;53.218;6.564;2024-03-02T13:44:20;294.05;;;280.13;;
85154;SDS011;75523;53.218;6.564;2024-03-02T13:46:46;297.13;;;282.90;;
85154;SDS011;75523;53.218;6.564;2024-03-02T13:49:13;299.77;;;285.65;;
85154;SDS011;75523;53.218;6.564;2024-03-02T13:51:39;298.23;;;284.13;;
85154;SDS011;75523;53.218;6.564;2024-03-02T13:54:04;295.27;;;281.30;;
85154;SDS011;75523;53.218;6.564;2024-03-02T13:56:30;292.58;;;278.75;;
85154;SDS011;75523;53.218;6.564;2024-03-02T14:01:23;290.52;;;276.60;;
85154;SDS011;75523;53.218;6.564;2024-03-02T14:03:49;288.47;;;274.23;;
85154;SDS011;75523;53.218;6.564;2024-03-02T14:06:14;283.73;;;270.23;;
85154;SDS011;75523;53.218;6.564;2024-03-02T14:08:40;296.23;;;281.97;;
85154;SDS011;75523;53.218;6.564;2024-03-02T14:11:07;279.63;;;266.15;;
85154;SDS011;75523;53.218;6.564;2024-03-02T14:13:33;293.77;;;279.57;;
85154;SDS011;75523;53.218;6.564;2024-03-02T14:15:58;282.93;;;269.30;;
85154;SDS011;75523;53.218;6.564;2024-03-02T14:18:24;289.80;;;275.80;;
85154;SDS011;75523;53.218;6.564;2024-03-02T14:20:49;294.80;;;280.70;;